Bay Phoenix — A8OE5 — position and weather

sailwx.info

Track history (hours):
 
Tides and Currents Weather Stations Pressure Air Temp Water Temp Dewpoint Dewpoint Depression Visibility Wind Speed Wind Dir Waves Ship Positions

Bay Phoenix

Last reported at 2016-Feb-12 01:29 UTC. Time now 2016-Feb-12 03:37 UTC.
Position N 14°34' W 017°53'.

Length 134 m; draft 4.8 m.

Type: Cargo ship. MMSI: 636015543.

Date/timePositionNaut miles runAvg speedWind from/ knotsBaromVisibWave heightAir tempDewpointWater temp
2016-Feb-12 01:29N 14°34' W 017°53'1617.4
2016-Feb-12 00:33N 14°36' W 017°37'1313.2
2016-Feb-11 23:33N 14°40' W 017°24'2 1.8
2016-Feb-11 22:28N 14°41' W 017°26'0 0.0
2016-Feb-11 21:33N 14°41' W 017°26'0 0.0
2016-Feb-11 20:32N 14°41' W 017°26'0 0.0
2016-Feb-11 19:31N 14°41' W 017°26'0 0.0
2016-Feb-11 18:33N 14°41' W 017°26'0 0.0
2016-Feb-11 17:33N 14°41' W 017°26'0 0.0
2016-Feb-11 16:33N 14°41' W 017°26'0 0.0
2016-Feb-11 15:33N 14°41' W 017°26'0 0.0
2016-Feb-11 14:27N 14°41' W 017°26'0 0.0
2016-Feb-11 13:32N 14°41' W 017°26'0 0.0
2016-Feb-11 12:27N 14°41' W 017°26'0 0.0
2016-Feb-11 11:31N 14°41' W 017°26'0 0.0
2016-Feb-11 10:32N 14°41' W 017°26'0 0.0
2016-Feb-11 09:32N 14°41' W 017°26'  
2016-Feb-05 02:20N 40°29' W 010°58'1012.9
2016-Feb-05 01:31N 40°39' W 010°54'2216.4
2016-Feb-05 00:10N 41°01' W 010°47'1116.0
2016-Feb-04 23:30N 41°11' W 010°43'1616.1
2016-Feb-04 22:31N 41°26' W 010°37'1716.6
2016-Feb-04 21:28N 41°43' W 010°31'1516.3
2016-Feb-04 20:31N 41°58' W 010°26'67213.7
2016-Feb-02 19:16N 50°30' E 000°04'1014.4
2016-Feb-02 18:33N 50°33' E 000°19'1414.0
2016-Feb-02 17:34N 50°38' E 000°40'2814.0
2016-Feb-02 15:33N 50°53' E 001°17'1515.3
2016-Feb-02 14:33N 51°05' E 001°32'1616.4
2016-Feb-02 13:33N 51°17' E 001°50'1212.5
2016-Feb-02 12:33N 51°23' E 002°08'1514.9
2016-Feb-02 11:32N 51°23' E 002°32'1111.1
2016-Feb-02 10:32N 51°22' E 002°50'1211.9
2016-Feb-02 09:33N 51°24' E 003°08'1212.2
2016-Feb-02 08:33N 51°25' E 003°28'10 9.1
2016-Feb-02 07:30N 51°28' E 003°43'1 0.5
2016-Feb-02 06:31N 51°29' E 003°42'0 0.0
2016-Feb-02 05:26N 51°29' E 003°42'0 0.0
2016-Feb-02 04:31N 51°29' E 003°42'0 0.0
2016-Feb-02 03:33N 51°29' E 003°42'0 0.0
2016-Feb-02 02:31N 51°29' E 003°42'  
Track history (hours):
 
Tides and Currents Weather Stations Pressure Air Temp Water Temp Dewpoint Dewpoint Depression Visibility Wind Speed Wind Dir Waves Ship Positions

Bay Phoenix

Last reported at 2016-Feb-12 01:29 UTC. Time now 2016-Feb-12 03:37 UTC.
Position N 14°34' W 017°53'.

Length 134 m; draft 4.8 m.

Type: Cargo ship. MMSI: 636015543.

Date/timePositionNaut miles runAvg speedWind from/ knotsBaromVisibWave heightAir tempDewpointWater temp
2016-Feb-12 01:29N 14°34' W 017°53'1617.4
2016-Feb-12 00:33N 14°36' W 017°37'1313.2
2016-Feb-11 23:33N 14°40' W 017°24'2 1.8
2016-Feb-11 22:28N 14°41' W 017°26'0 0.0
2016-Feb-11 21:33N 14°41' W 017°26'0 0.0
2016-Feb-11 20:32N 14°41' W 017°26'0 0.0
2016-Feb-11 19:31N 14°41' W 017°26'0 0.0
2016-Feb-11 18:33N 14°41' W 017°26'0 0.0
2016-Feb-11 17:33N 14°41' W 017°26'0 0.0
2016-Feb-11 16:33N 14°41' W 017°26'0 0.0
2016-Feb-11 15:33N 14°41' W 017°26'0 0.0
2016-Feb-11 14:27N 14°41' W 017°26'0 0.0
2016-Feb-11 13:32N 14°41' W 017°26'0 0.0
2016-Feb-11 12:27N 14°41' W 017°26'0 0.0
2016-Feb-11 11:31N 14°41' W 017°26'0 0.0
2016-Feb-11 10:32N 14°41' W 017°26'0 0.0
2016-Feb-11 09:32N 14°41' W 017°26'  
2016-Feb-05 02:20N 40°29' W 010°58'1012.9
2016-Feb-05 01:31N 40°39' W 010°54'2216.4
2016-Feb-05 00:10N 41°01' W 010°47'1116.0
2016-Feb-04 23:30N 41°11' W 010°43'1616.1
2016-Feb-04 22:31N 41°26' W 010°37'1716.6
2016-Feb-04 21:28N 41°43' W 010°31'1516.3
2016-Feb-04 20:31N 41°58' W 010°26'67213.7
2016-Feb-02 19:16N 50°30' E 000°04'1014.4
2016-Feb-02 18:33N 50°33' E 000°19'1414.0
2016-Feb-02 17:34N 50°38' E 000°40'2814.0
2016-Feb-02 15:33N 50°53' E 001°17'1515.3
2016-Feb-02 14:33N 51°05' E 001°32'1616.4
2016-Feb-02 13:33N 51°17' E 001°50'1212.5
2016-Feb-02 12:33N 51°23' E 002°08'1514.9
2016-Feb-02 11:32N 51°23' E 002°32'1111.1
2016-Feb-02 10:32N 51°22' E 002°50'1211.9
2016-Feb-02 09:33N 51°24' E 003°08'1212.2
2016-Feb-02 08:33N 51°25' E 003°28'10 9.1
2016-Feb-02 07:30N 51°28' E 003°43'1 0.5
2016-Feb-02 06:31N 51°29' E 003°42'0 0.0
2016-Feb-02 05:26N 51°29' E 003°42'0 0.0
2016-Feb-02 04:31N 51°29' E 003°42'0 0.0
2016-Feb-02 03:33N 51°29' E 003°42'0 0.0
2016-Feb-02 02:31N 51°29' E 003°42'  

Dump ship's entire track history